Map

Track Data

SID SEASON NUMBER BASIN SUBBASIN NAME ISO_TIME NATURE LAT LON WMO_WIND WMO_PRES WMO_AGENCY TRACK_TYPE DIST2LAND LANDFALL IFLAG USA_AGENCY USA_ATCF_ID USA_LAT USA_LON USA_RECORD USA_STATUS USA_WIND USA_PRES USA_SSHS USA_R34_NE USA_R34_SE USA_R34_SW USA_R34_NW USA_R50_NE USA_R50_SE USA_R50_SW USA_R50_NW USA_R64_NE USA_R64_SE USA_R64_SW USA_R64_NW USA_POCI USA_ROCI USA_RMW USA_EYE TOKYO_LAT TOKYO_LON TOKYO_GRADE TOKYO_WIND TOKYO_PRES TOKYO_R50_DIR TOKYO_R50_LONG TOKYO_R50_SHORT TOKYO_R30_DIR TOKYO_R30_LONG TOKYO_R30_SHORT TOKYO_LAND CMA_LAT CMA_LON CMA_CAT CMA_WIND CMA_PRES HKO_LAT HKO_LON HKO_CAT HKO_WIND HKO_PRES NEWDELHI_LAT NEWDELHI_LON NEWDELHI_GRADE NEWDELHI_WIND NEWDELHI_PRES NEWDELHI_CI NEWDELHI_DP NEWDELHI_POCI REUNION_LAT REUNION_LON REUNION_TYPE REUNION_WIND REUNION_PRES REUNION_TNUM REUNION_CI REUNION_RMW REUNION_R34_NE REUNION_R34_SE REUNION_R34_SW REUNION_R34_NW REUNION_R50_NE REUNION_R50_SE REUNION_R50_SW REUNION_R50_NW REUNION_R64_NE REUNION_R64_SE REUNION_R64_SW REUNION_R64_NW BOM_LAT BOM_LON BOM_TYPE BOM_WIND BOM_PRES BOM_TNUM BOM_CI BOM_RMW BOM_R34_NE BOM_R34_SE BOM_R34_SW BOM_R34_NW BOM_R50_NE BOM_R50_SE BOM_R50_SW BOM_R50_NW BOM_R64_NE BOM_R64_SE BOM_R64_SW BOM_R64_NW BOM_ROCI BOM_POCI BOM_EYE BOM_POS_METHOD BOM_PRES_METHOD NADI_LAT NADI_LON NADI_CAT NADI_WIND NADI_PRES WELLINGTON_LAT WELLINGTON_LON WELLINGTON_WIND WELLINGTON_PRES DS824_LAT DS824_LON DS824_STAGE DS824_WIND DS824_PRES TD9636_LAT TD9636_LON TD9636_STAGE TD9636_WIND TD9636_PRES TD9635_LAT TD9635_LON TD9635_WIND TD9635_PRES TD9635_ROCI NEUMANN_LAT NEUMANN_LON NEUMANN_CLASS NEUMANN_WIND NEUMANN_PRES MLC_LAT MLC_LON MLC_CLASS MLC_WIND MLC_PRES USA_GUST BOM_GUST BOM_GUST_PER REUNION_GUST REUNION_GUST_PER USA_SEAHGT USA_SEARAD_NE USA_SEARAD_SE USA_SEARAD_SW USA_SEARAD_NW STORM_SPEED STORM_DIR
1900184N16127 1900 11 WP MM NOT_NAMED 1900-07-02 16:00:00 NR 16.2000 126.500 main 341 341 __________O___ -1 16.2000 126.500 7 6 330
1900184N16127 1900 11 WP MM NOT_NAMED 1900-07-02 18:00:00 NR 16.3602 126.401 main 350 350 __________P___ -1 16.3602 126.401 7 6 329
1900184N16127 1900 11 WP MM NOT_NAMED 1900-07-02 21:00:00 NR 16.6029 126.245 main 355 355 __________P___ -1 16.6029 126.245 7 6 328
1900184N16127 1900 11 WP MM NOT_NAMED 1900-07-03 00:00:00 NR 16.8518 126.073 main 377 361 __________P___ -1 16.8518 126.073 7 6 325
1900184N16127 1900 11 WP MM NOT_NAMED 1900-07-03 03:00:00 NR 17.1108 125.874 main 361 351 __________P___ -1 17.1108 125.874 7 7 323
1900184N16127 1900 11 WP MM NOT_NAMED 1900-07-03 04:00:00 NR 17.2000 125.800 main 351 332 __________O___ -1 17.2000 125.800 7 7 321
1900184N16127 1900 11 WP MM NOT_NAMED 1900-07-03 06:00:00 NR 17.3834 125.639 main 332 315 __________P___ -1 17.3834 125.639 7 8 319
1900184N16127 1900 11 WP MM NOT_NAMED 1900-07-03 09:00:00 NR 17.6709 125.373 main 317 293 __________P___ -1 17.6709 125.373 7 8 318
1900184N16127 1900 11 WP MM NOT_NAMED 1900-07-03 12:00:00 NR 17.9734 125.088 main 296 263 __________P___ -1 17.9734 125.088 7 8 318
1900184N16127 1900 11 WP MM NOT_NAMED 1900-07-03 15:00:00 NR 18.2908 124.797 main 263 253 __________P___ -1 18.2908 124.797 7 8 319
1900184N16127 1900 11 WP MM NOT_NAMED 1900-07-03 16:00:00 NR 18.4000 124.700 main 253 233 __________O___ -1 18.4000 124.700 7 9 320
1900184N16127 1900 11 WP MM NOT_NAMED 1900-07-03 18:00:00 NR 18.6166 124.511 main 233 207 __________P___ -1 18.6166 124.511 7 9 321
1900184N16127 1900 11 WP MM NOT_NAMED 1900-07-03 21:00:00 NR 18.9541 124.228 main 211 200 __________P___ -1 18.9541 124.228 7 9 322
1900184N16127 1900 11 WP MM NOT_NAMED 1900-07-04 00:00:00 NR 19.3067 123.951 main 205 193 __________P___ -1 19.3067 123.951 7 9 325
1900184N16127 1900 11 WP MM NOT_NAMED 1900-07-04 03:00:00 NR 19.6742 123.685 main 206 199 __________P___ -1 19.6742 123.685 7 9 326
1900184N16127 1900 11 WP MM NOT_NAMED 1900-07-04 04:00:00 NR 19.8000 123.600 main 207 207 __________O___ -1 19.8000 123.600 7 9 328
1900184N16127 1900 11 WP MM NOT_NAMED 1900-07-04 06:00:00 NR 20.0578 123.428 main 222 222 __________P___ -1 20.0578 123.428 7 9 329
1900184N16127 1900 11 WP MM NOT_NAMED 1900-07-04 09:00:00 NR 20.4573 123.183 main 253 244 __________P___ -1 20.4573 123.183 7 9 331
1900184N16127 1900 11 WP MM NOT_NAMED 1900-07-04 12:00:00 NR 20.8637 122.958 main 244 207 __________P___ -1 20.8637 122.958 7 9 334
1900184N16127 1900 11 WP MM NOT_NAMED 1900-07-04 15:00:00 NR 21.2676 122.759 main 207 194 __________P___ -1 21.2676 122.759 7 9 336
1900184N16127 1900 11 WP MM NOT_NAMED 1900-07-04 16:00:00 NR 21.4000 122.700 main 194 176 __________O___ -1 21.4000 122.700 7 8 339
1900184N16127 1900 11 WP MM NOT_NAMED 1900-07-04 18:00:00 NR 21.6608 122.596 main 176 164 __________P___ -1 21.6608 122.596 7 8 341
1900184N16127 1900 11 WP MM NOT_NAMED 1900-07-04 21:00:00 NR 22.0459 122.466 main 164 128 __________P___ -1 22.0459 122.466 7 8 343
1900184N16127 1900 11 WP MM NOT_NAMED 1900-07-05 00:00:00 NR 22.4210 122.352 main 128 88 __________P___ -1 22.4210 122.352 7 8 344
1900184N16127 1900 11 WP MM NOT_NAMED 1900-07-05 03:00:00 NR 22.7829 122.240 main 88 84 __________P___ -1 22.7829 122.240 7 8 343
1900184N16127 1900 11 WP MM NOT_NAMED 1900-07-05 04:00:00 NR 22.9000 122.200 main 84 71 __________O___ -1 22.9000 122.200 7 7 339
1900184N16127 1900 11 WP MM NOT_NAMED 1900-07-05 06:00:00 NR 23.1229 122.100 main 71 51 __________P___ -1 23.1229 122.100 7 7 337
1900184N16127 1900 11 WP MM NOT_NAMED 1900-07-05 09:00:00 NR 23.4444 121.945 main 51 30 __________P___ -1 23.4444 121.945 7 7 336
1900184N16127 1900 11 WP MM NOT_NAMED 1900-07-05 12:00:00 NR 23.7618 121.790 main 30 0 __________P___ -1 23.7618 121.790 7 7 337
1900184N16127 1900 11 WP MM NOT_NAMED 1900-07-05 15:00:00 NR 24.0874 121.644 main 0 0 __________P___ -1 24.0874 121.644 7 7 338
1900184N16127 1900 11 WP MM NOT_NAMED 1900-07-05 16:00:00 NR 24.2000 121.600 main 0 0 __________O___ -1 24.2000 121.600 7 7 342
1900184N16127 1900 11 WP MM NOT_NAMED 1900-07-05 18:00:00 NR 24.4330 121.518 main 0 0 __________P___ -1 24.4330 121.518 7 8 344
1900184N16127 1900 11 WP MM NOT_NAMED 1900-07-05 21:00:00 NR 24.7993 121.411 main 0 0 __________P___ -1 24.7993 121.411 7 8 346
1900184N16127 1900 11 WP MM NOT_NAMED 1900-07-06 00:00:00 NR 25.1802 121.316 main 10 10 __________P___ -1 25.1802 121.316 7 8 348
1900184N16127 1900 11 WP MM NOT_NAMED 1900-07-06 03:00:00 NR 25.5695 121.229 main 48 48 __________P___ -1 25.5695 121.229 7 8 348
1900184N16127 1900 11 WP MM NOT_NAMED 1900-07-06 04:00:00 NR 25.7000 121.200 main 59 __________O___ -1 25.7000 121.200 4 8 354

Digital Typhoon Data and Search

About IBTrACS Database

This database is a web-friendly format of International Best Track Archive for Climate Stewardship (IBTrACS), a global best track data archive curated by NOAA dating back to 1842.

Updated: 2021-10-08